createdAt,value
2022-12-03T00:00:15.526Z,98079.16
2022-12-03T00:02:43.803Z,98077.56
2022-12-03T00:05:12.591Z,98055.81
2022-12-03T00:07:40.873Z,98074.94
2022-12-03T00:10:09.744Z,98072.34
2022-12-03T00:12:37.951Z,98069.75
2022-12-03T00:15:09.523Z,98071.47
2022-12-03T00:17:37.711Z,98065.38
2022-12-03T00:20:07.136Z,98075.91
2022-12-03T00:22:35.345Z,98079.38
2022-12-03T00:25:03.583Z,98060.19
2022-12-03T00:27:31.775Z,98081.88
2022-12-03T00:29:59.906Z,98089.63
2022-12-03T00:32:29.534Z,98074.16
2022-12-03T00:34:57.654Z,98087.13
2022-12-03T00:37:25.819Z,98088.84
2022-12-03T00:39:54.074Z,98095.63
2022-12-03T00:42:22.210Z,98102.44
2022-12-03T00:44:50.959Z,98094.53
2022-12-03T00:47:19.441Z,98031.03
2022-12-03T00:49:49.164Z,98089.19
2022-12-03T00:52:17.320Z,98099.63
2022-12-03T00:54:45.504Z,98095.34
2022-12-03T00:57:13.639Z,98097.09
2022-12-03T00:59:41.795Z,98096.31
2022-12-03T01:02:10.119Z,98096.47
2022-12-03T01:04:38.288Z,98093.84
2022-12-03T01:07:08.112Z,98098.19
2022-12-03T01:09:36.255Z,98094.66
2022-12-03T01:12:04.625Z,98092.97
2022-12-03T01:14:33.029Z,98084.41
2022-12-03T01:17:01.172Z,98093.03
2022-12-03T01:19:29.412Z,98091.31
2022-12-03T01:21:57.592Z,98087.84
2022-12-03T01:24:27.156Z,98077.44
2022-12-03T01:26:56.012Z,98100.84
2022-12-03T01:29:24.294Z,98068.78
2022-12-03T01:32:10.070Z,98066.09
2022-12-03T01:34:38.315Z,98104.28
2022-12-03T01:37:06.394Z,98103.44
2022-12-03T01:39:35.933Z,98094.75
2022-12-03T01:42:04.589Z,98090.38
2022-12-03T01:44:34.747Z,98085.06
2022-12-03T01:47:05.611Z,98103.25
2022-12-03T01:49:39.486Z,98098.06
2022-12-03T01:52:10.640Z,98092.78
2022-12-03T01:54:43.500Z,98100.72
2022-12-03T01:57:21.438Z,98098.94
2022-12-03T01:59:50.540Z,98052.00
2022-12-03T02:02:23.879Z,98096.25
2022-12-03T02:04:53.208Z,98069.25
2022-12-03T02:07:25.119Z,98064.28
2022-12-03T02:09:56.590Z,98100.78
2022-12-03T02:12:29.550Z,98099.06
2022-12-03T02:14:58.085Z,98098.13
2022-12-03T02:17:26.802Z,98097.19
2022-12-03T02:19:55.874Z,98020.78
2022-12-03T02:22:32.536Z,98103.16
2022-12-03T02:25:19.655Z,98101.41
2022-12-03T02:27:49.465Z,98054.41
2022-12-03T02:30:20.532Z,97977.97
2022-12-03T02:32:49.700Z,98116.78
2022-12-03T02:35:20.039Z,98136.53
2022-12-03T02:37:50.744Z,98133.03
2022-12-03T02:40:23.019Z,98120.94
2022-12-03T02:42:51.691Z,98126.94
2022-12-03T02:45:23.403Z,98119.03
2022-12-03T02:47:55.380Z,98131.25
2022-12-03T02:50:27.816Z,98126.06
2022-12-03T02:52:57.989Z,98120.91
2022-12-03T02:55:34.915Z,98017.56
2022-12-03T02:58:06.286Z,98068.81
2022-12-03T03:00:35.514Z,98008.13
2022-12-03T03:03:05.257Z,98120.06
2022-12-03T03:05:34.829Z,98124.47
2022-12-03T03:08:03.567Z,98118.47
2022-12-03T03:10:36.230Z,98124.63
2022-12-03T03:13:10.823Z,98118.69
2022-12-03T03:15:40.673Z,98116.06
2022-12-03T03:18:10.126Z,98123.84
2022-12-03T03:20:38.860Z,98132.63
2022-12-03T03:23:13.529Z,98098.81
2022-12-03T03:25:46.600Z,98145.69
2022-12-03T03:28:16.310Z,98138.72
2022-12-03T03:30:45.349Z,98144.78
2022-12-03T03:33:14.864Z,98136.13
2022-12-03T03:35:43.954Z,98127.41
2022-12-03T03:38:12.423Z,98047.44
2022-12-03T03:40:42.281Z,98130.75
2022-12-03T03:43:10.799Z,98114.28
2022-12-03T03:45:39.042Z,98123.06
2022-12-03T03:48:07.569Z,98121.34
2022-12-03T03:50:36.210Z,98124.00
2022-12-03T03:53:05.753Z,98126.59
2022-12-03T03:55:34.542Z,98124.91
2022-12-03T03:58:04.269Z,98100.69
2022-12-03T04:00:32.779Z,98112.88
2022-12-03T04:03:00.943Z,98111.19
2022-12-03T04:05:29.392Z,98086.94
2022-12-03T04:07:58.919Z,98107.72
2022-12-03T04:10:40.902Z,98098.97
2022-12-03T04:13:10.615Z,98118.91
2022-12-03T04:15:38.829Z,98115.53
2022-12-03T04:18:24.437Z,98110.25
2022-12-03T04:21:12.564Z,98116.22
2022-12-03T04:23:39.584Z,98113.63
2022-12-03T04:26:25.083Z,98084.09
2022-12-03T04:28:54.667Z,98121.41
2022-12-03T04:31:40.089Z,98098.06
2022-12-03T04:34:25.442Z,98088.59
2022-12-03T04:36:53.589Z,98079.94
2022-12-03T04:39:21.995Z,98114.59
2022-12-03T04:41:50.145Z,98097.19
2022-12-03T04:44:36.356Z,98101.53
2022-12-03T04:47:08.042Z,98124.13
2022-12-03T04:49:37.098Z,98130.19
2022-12-03T04:52:05.772Z,98119.72
2022-12-03T04:54:34.365Z,98109.19
2022-12-03T04:57:02.725Z,98121.34
2022-12-03T04:59:32.354Z,98128.22
2022-12-03T05:02:00.603Z,98114.25
2022-12-03T05:04:28.865Z,98125.53
2022-12-03T05:06:57.057Z,98122.81
2022-12-03T05:09:25.222Z,98066.38
2022-12-03T05:11:53.389Z,98119.44
2022-12-03T05:14:21.555Z,98119.41
2022-12-03T05:16:51.207Z,98101.19
2022-12-03T05:19:19.432Z,98111.69
2022-12-03T05:21:46.543Z,98112.56
2022-12-03T05:24:14.703Z,98114.41
2022-12-03T05:26:42.854Z,98099.63
2022-12-03T05:29:11.014Z,98117.88
2022-12-03T05:31:39.126Z,98093.50
2022-12-03T05:34:08.649Z,98119.59
2022-12-03T05:36:36.819Z,98101.41
2022-12-03T05:39:05.113Z,98120.53
2022-12-03T05:42:02.342Z,98101.47
2022-12-03T05:44:30.454Z,98123.19
2022-12-03T05:46:58.530Z,98097.91
2022-12-03T05:49:28.066Z,98116.25
2022-12-03T05:51:58.613Z,98099.63
2022-12-03T05:54:27.035Z,98061.59
2022-12-03T05:56:55.228Z,98110.19
2022-12-03T05:59:23.422Z,98092.78
2022-12-03T06:01:51.579Z,98118.81
2022-12-03T06:04:19.739Z,98120.63
2022-12-03T06:06:49.262Z,98127.50
2022-12-03T06:09:17.384Z,98137.78
2022-12-03T06:11:45.496Z,98126.47
2022-12-03T06:14:13.630Z,98063.09
2022-12-03T06:16:41.856Z,98120.38
2022-12-03T06:19:09.977Z,98103.84
2022-12-03T06:21:38.069Z,98062.16
2022-12-03T06:24:07.999Z,98093.50
2022-12-03T06:26:36.223Z,98122.16
2022-12-03T06:29:04.402Z,98117.00
2022-12-03T06:31:32.566Z,98019.00
2022-12-03T06:34:00.810Z,98112.63
2022-12-03T06:36:28.951Z,98115.31
2022-12-03T06:38:57.150Z,98121.25
2022-12-03T06:41:26.824Z,98098.75
2022-12-03T06:43:54.975Z,98114.31
2022-12-03T06:46:23.139Z,98102.22
2022-12-03T06:48:51.411Z,98127.50
2022-12-03T06:51:19.563Z,98131.88
2022-12-03T06:53:47.720Z,98127.50
2022-12-03T06:56:18.892Z,98134.38
2022-12-03T06:58:51.531Z,98136.91
2022-12-03T07:01:19.910Z,98141.28
2022-12-03T07:03:48.713Z,98024.97
2022-12-03T07:06:16.973Z,98155.88
2022-12-03T07:08:45.156Z,98161.13
2022-12-03T07:11:27.071Z,98150.81
2022-12-03T07:14:01.587Z,98148.19
2022-12-03T07:16:33.251Z,98131.00
2022-12-03T07:19:01.506Z,98149.13
2022-12-03T07:21:29.717Z,98159.56
2022-12-03T07:23:57.827Z,98153.59
2022-12-03T07:26:26.115Z,98151.78
2022-12-03T07:28:54.279Z,98149.19
2022-12-03T07:31:23.942Z,98137.88
2022-12-03T07:33:52.168Z,98129.25
2022-12-03T07:36:20.597Z,98148.38
2022-12-03T07:38:48.934Z,98142.38
2022-12-03T07:41:17.115Z,98124.22
2022-12-03T07:43:45.984Z,98137.38
2022-12-03T07:46:14.173Z,98145.97
2022-12-03T07:48:43.759Z,98014.94
2022-12-03T07:51:15.248Z,98022.69
2022-12-03T07:53:43.873Z,98127.59
2022-12-03T07:56:12.299Z,98144.03
2022-12-03T07:58:40.507Z,98145.84
2022-12-03T08:01:08.819Z,98145.03
2022-12-03T08:03:36.999Z,98149.44
2022-12-03T08:06:06.870Z,98147.69
2022-12-03T08:08:34.967Z,98152.88
2022-12-03T08:11:03.220Z,98150.34
2022-12-03T08:13:31.472Z,98152.94
2022-12-03T08:16:02.725Z,98137.16
2022-12-03T08:18:30.921Z,98145.06
2022-12-03T08:20:59.524Z,98152.81
2022-12-03T08:23:29.232Z,98148.69
2022-12-03T08:26:02.176Z,98158.97
2022-12-03T08:28:30.540Z,98113.84
2022-12-03T08:31:02.854Z,98132.13
2022-12-03T08:33:35.547Z,98166.81
2022-12-03T08:36:12.651Z,98175.44
2022-12-03T08:38:42.403Z,98132.03
2022-12-03T08:41:13.897Z,98177.97
2022-12-03T08:43:43.913Z,98167.59
2022-12-03T08:46:17.125Z,98166.69
2022-12-03T08:48:49.180Z,98166.69
2022-12-03T08:51:22.868Z,98163.16
2022-12-03T08:54:01.137Z,98164.88
2022-12-03T08:56:31.615Z,98045.09
2022-12-03T08:59:01.893Z,98162.41
2022-12-03T09:01:40.484Z,98131.97
2022-12-03T09:04:32.316Z,98170.22
2022-12-03T09:07:00.607Z,98160.69
2022-12-03T09:09:30.302Z,98160.63
2022-12-03T09:11:58.543Z,98160.66
2022-12-03T09:14:26.729Z,98155.53
2022-12-03T09:16:56.310Z,98094.91
2022-12-03T09:19:25.881Z,98157.34
2022-12-03T09:21:54.672Z,98103.66
2022-12-03T09:24:23.003Z,98107.16
2022-12-03T09:26:52.665Z,98156.72
2022-12-03T09:29:20.812Z,98133.28
2022-12-03T09:31:49.094Z,98103.72
2022-12-03T09:34:17.316Z,98155.00
2022-12-03T09:36:45.530Z,98151.53
2022-12-03T09:39:13.662Z,98145.50
2022-12-03T09:41:42.214Z,98148.19
2022-12-03T09:44:17.663Z,98143.88
2022-12-03T09:46:48.471Z,98144.81
2022-12-03T09:49:19.125Z,98145.66
2022-12-03T09:51:47.678Z,98148.22
2022-12-03T09:54:25.314Z,98141.25
2022-12-03T09:56:54.622Z,98144.66
2022-12-03T09:59:26.528Z,98146.38
2022-12-03T10:01:55.572Z,98141.19
2022-12-03T10:04:23.973Z,98084.78
2022-12-03T10:06:52.615Z,98131.63
2022-12-03T10:09:26.857Z,98135.94
2022-12-03T10:11:56.591Z,98104.63
2022-12-03T10:14:26.618Z,98106.44
2022-12-03T10:16:54.914Z,98120.28
2022-12-03T10:19:25.475Z,98120.31
2022-12-03T10:21:53.710Z,98111.69
2022-12-03T10:24:25.606Z,98117.88
2022-12-03T10:26:56.193Z,98103.16
2022-12-03T10:29:33.251Z,98094.56
2022-12-03T10:32:03.350Z,98108.44
2022-12-03T10:34:33.852Z,98109.31
2022-12-03T10:37:17.088Z,98091.06
2022-12-03T10:39:57.817Z,98113.56
2022-12-03T10:42:27.222Z,98100.50
2022-12-03T10:45:18.671Z,98108.28
2022-12-03T10:48:05.041Z,98084.91
2022-12-03T10:50:34.738Z,98097.97
2022-12-03T10:53:02.994Z,98087.63
2022-12-03T10:55:39.029Z,98095.53
2022-12-03T10:58:07.234Z,98082.50
2022-12-03T11:00:36.923Z,98099.88
2022-12-03T11:03:05.363Z,98099.00
2022-12-03T11:05:33.587Z,98095.59
2022-12-03T11:08:01.914Z,98108.59
2022-12-03T11:10:30.167Z,98099.91
2022-12-03T11:13:40.773Z,98092.16
2022-12-03T11:16:10.465Z,98086.09
2022-12-03T11:19:02.161Z,98078.34
2022-12-03T11:21:30.606Z,98043.59
2022-12-03T11:24:22.232Z,98083.59
2022-12-03T11:27:20.910Z,98071.50
2022-12-03T11:30:02.485Z,98075.00
2022-12-03T11:33:07.526Z,98080.16
2022-12-03T11:36:15.531Z,98086.06
2022-12-03T11:38:53.841Z,98079.09
2022-12-03T11:41:25.265Z,97957.56
2022-12-03T11:44:06.248Z,98080.66
2022-12-03T11:46:43.790Z,98068.53
2022-12-03T11:49:40.747Z,98065.94
2022-12-03T11:52:40.724Z,98049.50
2022-12-03T11:55:18.825Z,98043.50
2022-12-03T11:57:47.411Z,98061.78
2022-12-03T12:00:21.195Z,98040.97
2022-12-03T12:02:50.781Z,98054.78
2022-12-03T12:05:26.339Z,97987.91
2022-12-03T12:07:56.855Z,98038.31
2022-12-03T12:10:43.569Z,98032.34
2022-12-03T12:13:55.838Z,98049.69
2022-12-03T12:16:46.220Z,98053.16
2022-12-03T12:19:38.146Z,98054.91
2022-12-03T12:22:29.512Z,98051.53
2022-12-03T12:25:00.627Z,98053.28
2022-12-03T12:27:35.304Z,98034.25
2022-12-03T12:30:06.990Z,98030.81
2022-12-03T12:32:47.274Z,97816.81
2022-12-03T12:35:19.266Z,98037.75
2022-12-03T12:37:58.927Z,98032.56
2022-12-03T12:40:30.635Z,98032.69
2022-12-03T12:43:00.410Z,98024.88
2022-12-03T12:45:30.345Z,98035.22
2022-12-03T12:48:08.523Z,98033.44
2022-12-03T12:50:37.672Z,98036.06
2022-12-03T12:53:13.667Z,98028.28
2022-12-03T12:55:43.343Z,98033.47
2022-12-03T12:58:16.266Z,98015.31
2022-12-03T13:00:47.183Z,98014.44
2022-12-03T13:03:18.357Z,98016.22
2022-12-03T13:05:49.895Z,97994.59
2022-12-03T13:08:29.813Z,98015.34
2022-12-03T13:11:01.259Z,97870.59
2022-12-03T13:13:43.138Z,97975.50
2022-12-03T13:16:19.375Z,97998.88
2022-12-03T13:18:49.572Z,98009.34
2022-12-03T13:21:26.409Z,97979.00
2022-12-03T13:23:56.951Z,97957.31
2022-12-03T13:26:36.504Z,97997.09
2022-12-03T13:29:19.598Z,98015.31
2022-12-03T13:31:52.425Z,98016.25
2022-12-03T13:34:23.294Z,98018.81
2022-12-03T13:36:57.663Z,98006.63
2022-12-03T13:39:30.769Z,98006.72
2022-12-03T13:42:24.965Z,98011.03
2022-12-03T13:44:54.616Z,98004.16
2022-12-03T13:47:25.132Z,98001.56
2022-12-03T13:49:56.159Z,98007.66
2022-12-03T13:52:27.212Z,98001.59
2022-12-03T13:54:58.135Z,98002.44
2022-12-03T13:57:28.030Z,97979.00
2022-12-03T13:59:56.586Z,98005.84
2022-12-03T14:02:25.177Z,97994.59
2022-12-03T14:04:59.806Z,98002.44
2022-12-03T14:07:28.606Z,98011.84
2022-12-03T14:09:57.180Z,98009.31
2022-12-03T14:12:30.272Z,97964.22
2022-12-03T14:14:59.786Z,98008.44
2022-12-03T14:17:27.975Z,98018.75
2022-12-03T14:19:56.574Z,98014.44
2022-12-03T14:22:25.575Z,98014.31
2022-12-03T14:24:54.771Z,98012.59
2022-12-03T14:27:24.857Z,98020.44
2022-12-03T14:29:54.079Z,98018.72
2022-12-03T14:32:23.982Z,98016.16
2022-12-03T14:34:52.151Z,98007.53
2022-12-03T14:37:20.712Z,98018.84
2022-12-03T14:39:48.773Z,98028.38
2022-12-03T14:42:17.016Z,98021.38
2022-12-03T14:44:46.610Z,98021.34
2022-12-03T14:47:15.851Z,98025.75
2022-12-03T14:49:45.831Z,97998.00
2022-12-03T14:52:13.950Z,98034.34
2022-12-03T14:54:43.106Z,97988.38
2022-12-03T14:57:12.853Z,97835.06
2022-12-03T14:59:41.210Z,98024.78
2022-12-03T15:02:10.284Z,98009.16
2022-12-03T15:04:38.539Z,98039.44
2022-12-03T15:07:08.826Z,97969.06
2022-12-03T15:09:37.094Z,98041.94
2022-12-03T15:12:06.021Z,98034.19
2022-12-03T15:14:34.095Z,98012.53
2022-12-03T15:17:02.391Z,98043.66
2022-12-03T15:19:30.611Z,98034.16
2022-12-03T15:21:58.729Z,98043.63
2022-12-03T15:24:28.846Z,98055.78
2022-12-03T15:26:57.047Z,98044.56
2022-12-03T15:29:25.463Z,98042.03
2022-12-03T15:31:53.639Z,98047.25
2022-12-03T15:34:23.121Z,98039.47
2022-12-03T15:36:51.680Z,98044.56
2022-12-03T15:39:19.862Z,98045.38
2022-12-03T15:41:49.553Z,98031.63
2022-12-03T15:44:17.841Z,98044.69
2022-12-03T15:46:46.036Z,98038.56
2022-12-03T15:49:14.231Z,98040.25
2022-12-03T15:51:42.414Z,98036.84
2022-12-03T15:54:12.389Z,98049.84
2022-12-03T15:56:40.634Z,98006.50
2022-12-03T15:59:10.208Z,98042.88
2022-12-03T16:01:38.545Z,98044.53
2022-12-03T16:04:06.928Z,98046.25
2022-12-03T16:06:35.277Z,98041.97
2022-12-03T16:09:03.577Z,98047.22
2022-12-03T16:11:31.898Z,98048.06
2022-12-03T16:14:00.203Z,98039.38
2022-12-03T16:16:30.118Z,98038.47
2022-12-03T16:18:58.569Z,98046.31
2022-12-03T16:21:27.482Z,98025.53
2022-12-03T16:23:56.050Z,98042.88
2022-12-03T16:26:24.467Z,98042.78
2022-12-03T16:28:52.688Z,98023.72
2022-12-03T16:31:21.721Z,98035.03
2022-12-03T16:33:51.615Z,98048.03
2022-12-03T16:36:20.003Z,98030.66
2022-12-03T16:38:48.558Z,98047.97
2022-12-03T16:41:16.808Z,98042.78
2022-12-03T16:43:47.634Z,97998.56
2022-12-03T16:46:26.345Z,98018.56
2022-12-03T16:48:58.060Z,98041.84
2022-12-03T16:51:27.864Z,98089.47
2022-12-03T16:53:56.456Z,98048.06
2022-12-03T16:56:24.741Z,98045.38
2022-12-03T16:58:53.005Z,98035.84
2022-12-03T17:01:21.239Z,98042.78
2022-12-03T17:03:49.509Z,97944.78
2022-12-03T17:06:19.116Z,98028.94
2022-12-03T17:08:49.678Z,98048.88
2022-12-03T17:11:18.743Z,98045.47
2022-12-03T17:13:46.895Z,97983.00
2022-12-03T17:16:15.385Z,98026.38
2022-12-03T17:18:43.765Z,98035.84
2022-12-03T17:21:12.166Z,98047.16
2022-12-03T17:23:41.724Z,98055.78
2022-12-03T17:26:09.995Z,97927.50
2022-12-03T17:28:38.374Z,98040.25
2022-12-03T17:31:06.999Z,98038.56
2022-12-03T17:33:35.225Z,98061.06
2022-12-03T17:36:03.456Z,98068.78
2022-12-03T17:38:37.340Z,98062.69
2022-12-03T17:41:08.710Z,98064.31
2022-12-03T17:43:39.802Z,98059.19
2022-12-03T17:46:08.326Z,97953.31
2022-12-03T17:48:37.042Z,98066.09
2022-12-03T17:51:05.457Z,98069.66
2022-12-03T17:53:33.620Z,98067.91
2022-12-03T17:56:01.883Z,98067.91
2022-12-03T17:58:31.458Z,97963.91
2022-12-03T18:01:02.696Z,98066.09
2022-12-03T18:03:31.843Z,98067.81
2022-12-03T18:06:00.178Z,98069.53
2022-12-03T18:08:28.321Z,98051.38
2022-12-03T18:10:56.600Z,98027.97
2022-12-03T18:13:24.943Z,98073.03
2022-12-03T18:15:54.656Z,98071.28
2022-12-03T18:18:22.845Z,98068.69
2022-12-03T18:20:51.087Z,98073.88
2022-12-03T18:23:19.370Z,98074.69
2022-12-03T18:25:47.618Z,98043.44
2022-12-03T18:28:15.721Z,98061.63
2022-12-03T18:30:49.172Z,98072.09
2022-12-03T18:33:23.727Z,98082.44
2022-12-03T18:35:54.547Z,98066.03
2022-12-03T18:38:23.859Z,98009.63
2022-12-03T18:40:54.484Z,98018.38
2022-12-03T18:43:22.988Z,98065.19
2022-12-03T18:45:51.371Z,98065.19
2022-12-03T18:48:21.915Z,97975.88
2022-12-03T18:50:50.048Z,98051.31
2022-12-03T18:53:19.921Z,98002.72
2022-12-03T18:55:49.187Z,98061.69
2022-12-03T18:58:17.431Z,98073.88
2022-12-03T19:00:45.682Z,98050.47
2022-12-03T19:03:13.922Z,98074.72
2022-12-03T19:05:43.554Z,98049.59
2022-12-03T19:08:15.087Z,98070.41
2022-12-03T19:10:44.374Z,97970.69
2022-12-03T19:13:13.202Z,98074.75
2022-12-03T19:15:41.917Z,98057.41
2022-12-03T19:18:10.036Z,98066.91
2022-12-03T19:20:41.433Z,98074.72
2022-12-03T19:23:11.356Z,98079.09
2022-12-03T19:25:39.578Z,98047.00
2022-12-03T19:28:08.159Z,98081.69
2022-12-03T19:30:36.390Z,98071.31
2022-12-03T19:33:04.614Z,98060.88
2022-12-03T19:35:33.621Z,98073.91
2022-12-03T19:38:01.824Z,98083.41
2022-12-03T19:40:32.256Z,98069.50
2022-12-03T19:43:00.399Z,98063.50
2022-12-03T19:45:28.574Z,98075.66
2022-12-03T19:47:56.748Z,98077.38
2022-12-03T19:50:24.892Z,98061.75
2022-12-03T19:52:53.094Z,98060.91
2022-12-03T19:55:21.492Z,98074.78
2022-12-03T19:57:51.260Z,98053.97
2022-12-03T20:00:19.801Z,98082.59
2022-12-03T20:02:50.750Z,98055.69
2022-12-03T20:05:19.113Z,98065.25
2022-12-03T20:07:47.439Z,98041.00
2022-12-03T20:10:15.687Z,98030.50
2022-12-03T20:12:43.806Z,98079.16
2022-12-03T20:15:14.557Z,98050.50
2022-12-03T20:17:42.821Z,98078.31
2022-12-03T20:20:11.788Z,98076.56
2022-12-03T20:22:39.956Z,98080.88
2022-12-03T20:25:08.880Z,97968.19
2022-12-03T20:27:37.468Z,98034.88
2022-12-03T20:30:06.892Z,98066.97
2022-12-03T20:32:40.690Z,98065.19
2022-12-03T20:35:13.162Z,98084.25
2022-12-03T20:37:41.314Z,98066.84
2022-12-03T20:40:10.563Z,98080.75
2022-12-03T20:42:38.781Z,98080.72
2022-12-03T20:45:08.047Z,98063.34
2022-12-03T20:47:37.636Z,98079.00
2022-12-03T20:50:06.776Z,98075.63
2022-12-03T20:52:34.962Z,98078.19
2022-12-03T20:55:03.186Z,97936.75
2022-12-03T20:57:31.332Z,98079.09
2022-12-03T20:59:59.458Z,98053.94
2022-12-03T21:02:28.365Z,98073.03
2022-12-03T21:04:58.131Z,98055.69
2022-12-03T21:07:26.351Z,98072.13
2022-12-03T21:09:54.843Z,98054.81
2022-12-03T21:12:23.148Z,98076.47
2022-12-03T21:14:51.364Z,98050.56
2022-12-03T21:17:20.394Z,98079.09
2022-12-03T21:19:48.623Z,98064.31
2022-12-03T21:22:18.237Z,98066.03
2022-12-03T21:24:46.610Z,98070.41
2022-12-03T21:27:21.152Z,98067.78
2022-12-03T21:29:49.925Z,98066.16
2022-12-03T21:32:18.109Z,98061.78
2022-12-03T21:34:46.297Z,98072.16
2022-12-03T21:37:14.502Z,98069.59
2022-12-03T21:39:44.080Z,98066.19
2022-12-03T21:42:18.822Z,97981.13
2022-12-03T21:45:00.336Z,98064.38
2022-12-03T21:47:33.441Z,98058.31
2022-12-03T21:50:05.946Z,98062.59
2022-12-03T21:52:34.915Z,98046.16
2022-12-03T21:55:04.599Z,98060.91
2022-12-03T21:57:32.699Z,98060.06
2022-12-03T22:00:00.889Z,98051.41
2022-12-03T22:02:29.145Z,97715.31
2022-12-03T22:04:57.380Z,98044.50
2022-12-03T22:07:25.780Z,98055.72
2022-12-03T22:09:54.230Z,98039.28
2022-12-03T22:12:24.016Z,98052.28
2022-12-03T22:14:52.159Z,98061.88
2022-12-03T22:17:20.526Z,98060.16
2022-12-03T22:19:48.681Z,98056.75
2022-12-03T22:22:16.962Z,97936.22
2022-12-03T22:24:46.105Z,98053.19
2022-12-03T22:27:14.664Z,98047.00
2022-12-03T22:29:44.286Z,98054.88
2022-12-03T22:32:12.540Z,98034.13
2022-12-03T22:34:41.074Z,98052.34
2022-12-03T22:37:09.520Z,98053.25
2022-12-03T22:39:37.650Z,98050.59
2022-12-03T22:42:06.266Z,98046.28
2022-12-03T22:44:34.540Z,98039.25
2022-12-03T22:47:04.344Z,98039.28
2022-12-03T22:49:32.603Z,98030.66
2022-12-03T22:52:00.723Z,98011.63
2022-12-03T22:54:29.038Z,98029.78
2022-12-03T22:56:57.196Z,98038.44
2022-12-03T22:59:25.408Z,98034.06
2022-12-03T23:01:53.625Z,98029.78
2022-12-03T23:04:23.309Z,98024.56
2022-12-03T23:06:51.432Z,98029.78
2022-12-03T23:09:19.619Z,98016.81
2022-12-03T23:11:48.106Z,98011.66
2022-12-03T23:14:16.263Z,98015.06
2022-12-03T23:16:44.484Z,98019.44
2022-12-03T23:19:12.773Z,97989.03
2022-12-03T23:21:42.459Z,98010.81
2022-12-03T23:24:11.809Z,98005.63
2022-12-03T23:26:41.194Z,98014.22
2022-12-03T23:29:09.359Z,97896.38
2022-12-03T23:31:37.591Z,97987.41
2022-12-03T23:34:06.301Z,97996.19
2022-12-03T23:36:35.498Z,97991.00
2022-12-03T23:39:05.197Z,97972.88
2022-12-03T23:41:33.361Z,97978.06
2022-12-03T23:44:01.463Z,97987.50
2022-12-03T23:46:29.844Z,97993.63
2022-12-03T23:49:00.082Z,97887.16
2022-12-03T23:51:28.223Z,97979.84
2022-12-03T23:53:56.967Z,97843.88
2022-12-03T23:56:29.225Z,97962.56
2022-12-03T23:58:57.924Z,97967.78
